Wetterdaten: Woche 05.07.10 - 11.07.10 (KW27)
Datum Zeit Temperatur Luftfeuchte Luftdruck Niederschlag Wind Richtung Sonnenschein Solar Taupunkt Windchill Windben
05.07.2010 00:00 20.2 C 97 % 1018.7 hPa 0.0 l/m 0.3 km/h (0 Bft) N 0.00 h 0 W/m 19.7 C 20.2 C 0.8 km/h (0 Bft)
05.07.2010 01:00 19.8 C 97 % 1018.7 hPa 0.0 l/m 0.0 km/h (0 Bft) N 0.00 h 0 W/m 19.3 C 19.8 C 0.4 km/h (0 Bft)
05.07.2010 02:00 19.5 C 98 % 1018.9 hPa 0.0 l/m 0.0 km/h (0 Bft) N 0.00 h 0 W/m 19.2 C 19.5 C 0.2 km/h (0 Bft)
05.07.2010 03:00 19.3 C 98 % 1018.6 hPa 0.0 l/m 0.0 km/h (0 Bft) N 0.00 h 0 W/m 18.9 C 19.3 C 0.5 km/h (0 Bft)
05.07.2010 04:00 19.0 C 98 % 1018.5 hPa 0.0 l/m 0.0 km/h (0 Bft) N 0.00 h 0 W/m 18.7 C 19.0 C 0.1 km/h (0 Bft)
05.07.2010 05:00 19.0 C 98 % 1018.4 hPa 0.0 l/m 0.0 km/h (0 Bft) N 0.00 h 5 W/m 18.7 C 19.0 C 0.0 km/h (0 Bft)
05.07.2010 06:00 18.9 C 99 % 1018.4 hPa 0.0 l/m 0.1 km/h (0 Bft) N 0.00 h 15 W/m 18.8 C 18.9 C 0.3 km/h (0 Bft)
05.07.2010 07:00 19.2 C 99 % 1018.8 hPa 0.0 l/m 0.2 km/h (0 Bft) N 0.05 h 93 W/m 19.1 C 19.2 C 1.0 km/h (0 Bft)
05.07.2010 08:00 20.3 C 95 % 1019.1 hPa 0.0 l/m 1.6 km/h (1 Bft) N 0.57 h 238 W/m 19.4 C 20.3 C 3.3 km/h (1 Bft)
05.07.2010 09:00 20.8 C 91 % 1019.4 hPa 0.0 l/m 1.9 km/h (1 Bft) N-NW 0.18 h 264 W/m 19.2 C 20.8 C 3.7 km/h (1 Bft)
05.07.2010 10:00 22.4 C 84 % 1019.0 hPa 0.0 l/m 1.1 km/h (1 Bft) O-SO 0.72 h 565 W/m 19.5 C 22.4 C 2.7 km/h (1 Bft)
05.07.2010 11:00 24.6 C 77 % 1018.7 hPa 0.0 l/m 2.5 km/h (1 Bft) SO 1.00 h 797 W/m 20.2 C 24.6 C 4.8 km/h (1 Bft)
05.07.2010 12:00 26.0 C 69 % 1018.4 hPa 0.0 l/m 2.6 km/h (1 Bft) W-SW 0.83 h 819 W/m 19.8 C 26.0 C 5.1 km/h (1 Bft)
05.07.2010 13:00 26.7 C 59 % 1017.8 hPa 0.0 l/m 7.6 km/h (2 Bft) W 0.90 h 813 W/m 17.9 C 26.7 C 12.3 km/h (3 Bft)
05.07.2010 14:00 27.2 C 52 % 1017.7 hPa 0.0 l/m 10.2 km/h (2 Bft) W 0.95 h 825 W/m 16.4 C 27.2 C 15.9 km/h (3 Bft)
05.07.2010 15:00 27.7 C 49 % 1017.4 hPa 0.0 l/m 10.3 km/h (2 Bft) W 1.00 h 768 W/m 15.9 C 27.7 C 16.2 km/h (3 Bft)
05.07.2010 16:00 28.1 C 41 % 1017.0 hPa 0.0 l/m 11.3 km/h (2 Bft) W 1.00 h 657 W/m 13.5 C 28.1 C 17.3 km/h (3 Bft)
05.07.2010 17:00 28.2 C 37 % 1016.7 hPa 0.0 l/m 11.7 km/h (2 Bft) W 1.00 h 536 W/m 12.1 C 28.2 C 17.7 km/h (3 Bft)
05.07.2010 18:00 28.1 C 38 % 1016.6 hPa 0.0 l/m 9.2 km/h (2 Bft) W 0.95 h 386 W/m 12.3 C 28.1 C 14.1 km/h (3 Bft)
05.07.2010 19:00 26.9 C 47 % 1016.9 hPa 0.0 l/m 10.9 km/h (2 Bft) W 0.97 h 219 W/m 14.7 C 26.9 C 16.9 km/h (3 Bft)
05.07.2010 20:00 25.3 C 51 % 1017.4 hPa 0.0 l/m 5.3 km/h (1 Bft) W 0.62 h 74 W/m 14.3 C 25.3 C 8.4 km/h (2 Bft)
05.07.2010 21:00 23.2 C 57 % 1018.0 hPa 0.0 l/m 0.7 km/h (0 Bft) NW 0.02 h 11 W/m 14.0 C 23.2 C 2.1 km/h (1 Bft)
05.07.2010 22:00 21.1 C 68 % 1018.5 hPa 0.0 l/m 1.6 km/h (1 Bft) O-SO 0.00 h 0 W/m 14.9 C 21.1 C 2.7 km/h (1 Bft)
05.07.2010 23:00 20.0 C 76 % 1019.2 hPa 0.0 l/m 2.6 km/h (1 Bft) O-SO 0.00 h 0 W/m 15.7 C 20.0 C 3.8 km/h (1 Bft)
06.07.2010 00:00 19.9 C 75 % 1019.2 hPa 0.0 l/m 3.6 km/h (1 Bft) O-SO 0.00 h 0 W/m 15.3 C 19.9 C 4.8 km/h (1 Bft)
06.07.2010 01:00 19.5 C 79 % 1019.2 hPa 0.0 l/m 0.0 km/h (0 Bft) N 0.00 h 0 W/m 15.7 C 19.5 C 0.3 km/h (0 Bft)
06.07.2010 02:00 19.2 C 79 % 1019.1 hPa 0.0 l/m 0.6 km/h (0 Bft) O-SO 0.00 h 0 W/m 15.5 C 19.2 C 1.6 km/h (1 Bft)
06.07.2010 03:00 18.4 C 85 % 1018.7 hPa 0.0 l/m 0.6 km/h (0 Bft) O-SO 0.00 h 0 W/m 15.7 C 18.4 C 1.3 km/h (1 Bft)
06.07.2010 04:00 18.3 C 85 % 1018.6 hPa 0.0 l/m 0.4 km/h (0 Bft) O-SO 0.00 h 0 W/m 15.8 C 18.3 C 1.1 km/h (0 Bft)
06.07.2010 05:00 17.9 C 90 % 1018.9 hPa 1.6 l/m 0.7 km/h (0 Bft) O-NO 0.00 h 0 W/m 16.2 C 17.9 C 2.1 km/h (1 Bft)
06.07.2010 06:00 17.4 C 93 % 1019.3 hPa 0.0 l/m 1.4 km/h (1 Bft) O-NO 0.00 h 26 W/m 16.3 C 17.4 C 2.9 km/h (1 Bft)
06.07.2010 07:00 17.6 C 94 % 1020.0 hPa 0.0 l/m 1.3 km/h (1 Bft) O-SO 0.00 h 76 W/m 16.7 C 17.6 C 2.6 km/h (1 Bft)
06.07.2010 08:00 18.5 C 91 % 1020.6 hPa 0.0 l/m 1.0 km/h (0 Bft) O-SO 0.05 h 173 W/m 16.9 C 18.5 C 2.3 km/h (1 Bft)
06.07.2010 09:00 20.0 C 84 % 1021.0 hPa 0.0 l/m 1.3 km/h (1 Bft) O-SO 0.27 h 296 W/m 17.1 C 20.0 C 3.1 km/h (1 Bft)
06.07.2010 10:00 20.6 C 77 % 1021.2 hPa 0.0 l/m 2.5 km/h (1 Bft) SO 0.18 h 258 W/m 16.3 C 20.6 C 4.5 km/h (1 Bft)
06.07.2010 11:00 22.2 C 70 % 1021.1 hPa 0.0 l/m 4.9 km/h (1 Bft) O-SO 0.47 h 589 W/m 16.6 C 22.2 C 7.9 km/h (2 Bft)
06.07.2010 12:00 22.9 C 68 % 1020.8 hPa 0.0 l/m 4.7 km/h (1 Bft) SO 0.27 h 474 W/m 16.8 C 22.9 C 8.5 km/h (2 Bft)
06.07.2010 13:00 25.2 C 55 % 1020.5 hPa 0.0 l/m 6.4 km/h (2 Bft) W 0.88 h 886 W/m 15.4 C 25.2 C 10.6 km/h (2 Bft)
06.07.2010 14:00 25.6 C 50 % 1020.1 hPa 0.0 l/m 7.9 km/h (2 Bft) W 0.93 h 796 W/m 14.5 C 25.6 C 12.0 km/h (2 Bft)
06.07.2010 15:00 26.2 C 49 % 1019.9 hPa 0.0 l/m 8.3 km/h (2 Bft) W 0.95 h 775 W/m 14.6 C 26.2 C 12.9 km/h (3 Bft)
06.07.2010 16:00 26.5 C 47 % 1019.5 hPa 0.0 l/m 8.4 km/h (2 Bft) W 1.00 h 658 W/m 14.4 C 26.5 C 12.7 km/h (3 Bft)
06.07.2010 17:00 26.1 C 47 % 1019.5 hPa 0.0 l/m 9.4 km/h (2 Bft) W 1.00 h 531 W/m 13.9 C 26.1 C 14.5 km/h (3 Bft)
06.07.2010 18:00 25.3 C 49 % 1019.7 hPa 0.0 l/m 8.1 km/h (2 Bft) W 1.00 h 320 W/m 13.8 C 25.3 C 12.6 km/h (3 Bft)
06.07.2010 19:00 24.2 C 50 % 1020.0 hPa 0.0 l/m 6.5 km/h (2 Bft) W 0.73 h 174 W/m 13.1 C 24.2 C 10.1 km/h (2 Bft)
06.07.2010 20:00 23.1 C 52 % 1020.3 hPa 0.0 l/m 4.1 km/h (1 Bft) N 0.92 h 93 W/m 12.7 C 23.1 C 7.3 km/h (2 Bft)
06.07.2010 21:00 21.1 C 55 % 1020.8 hPa 0.0 l/m 0.8 km/h (0 Bft) NO 0.15 h 15 W/m 11.6 C 21.1 C 2.6 km/h (1 Bft)
06.07.2010 22:00 18.9 C 67 % 1021.3 hPa 0.0 l/m 0.2 km/h (0 Bft) O-SO 0.00 h 0 W/m 12.6 C 18.9 C 0.9 km/h (0 Bft)
06.07.2010 23:00 17.7 C 72 % 1021.7 hPa 0.0 l/m 0.6 km/h (0 Bft) O-SO 0.00 h 0 W/m 12.6 C 17.7 C 1.4 km/h (1 Bft)
07.07.2010 00:00 17.2 C 73 % 1021.9 hPa 0.0 l/m 0.3 km/h (0 Bft) O-SO 0.00 h 0 W/m 12.3 C 17.2 C 1.1 km/h (1 Bft)
07.07.2010 01:00 16.7 C 74 % 1021.8 hPa 0.0 l/m 0.0 km/h (0 Bft) O-NO 0.00 h 0 W/m 12.1 C 16.7 C 0.3 km/h (0 Bft)
07.07.2010 02:00 16.0 C 77 % 1021.8 hPa 0.0 l/m 0.0 km/h (0 Bft) N 0.00 h 0 W/m 11.9 C 16.0 C 0.5 km/h (0 Bft)
07.07.2010 03:00 15.4 C 80 % 1021.5 hPa 0.0 l/m 0.0 km/h (0 Bft) N 0.00 h 0 W/m 11.9 C 15.4 C 0.5 km/h (0 Bft)
07.07.2010 04:00 14.4 C 85 % 1021.2 hPa 0.0 l/m 0.5 km/h (0 Bft) O-NO 0.00 h 0 W/m 11.9 C 14.4 C 1.3 km/h (1 Bft)
07.07.2010 05:00 13.7 C 87 % 1021.2 hPa 0.0 l/m 1.1 km/h (0 Bft) O-NO 0.00 h 7 W/m 11.5 C 13.7 C 2.6 km/h (1 Bft)
07.07.2010 06:00 13.6 C 87 % 1021.4 hPa 0.0 l/m 0.2 km/h (0 Bft) O-NO 0.00 h 24 W/m 11.4 C 13.6 C 0.8 km/h (0 Bft)
07.07.2010 07:00 15.3 C 85 % 1021.5 hPa 0.0 l/m 0.0 km/h (0 Bft) N 0.80 h 174 W/m 12.7 C 15.3 C 0.3 km/h (0 Bft)
07.07.2010 08:00 17.6 C 75 % 1021.4 hPa 0.0 l/m 1.0 km/h (0 Bft) O-NO 1.00 h 342 W/m 13.2 C 17.6 C 2.5 km/h (1 Bft)
07.07.2010 09:00 19.8 C 64 % 1021.6 hPa 0.0 l/m 1.8 km/h (1 Bft) O-SO 1.00 h 505 W/m 12.8 C 19.8 C 4.1 km/h (1 Bft)
07.07.2010 10:00 21.7 C 59 % 1021.4 hPa 0.0 l/m 2.0 km/h (1 Bft) SO 1.00 h 649 W/m 13.3 C 21.7 C 4.3 km/h (1 Bft)
07.07.2010 11:00 23.3 C 53 % 1021.2 hPa 0.0 l/m 2.5 km/h (1 Bft) O-SO 1.00 h 763 W/m 13.2 C 23.3 C 5.2 km/h (1 Bft)
07.07.2010 12:00 24.2 C 49 % 1021.1 hPa 0.0 l/m 4.6 km/h (1 Bft) SO 1.00 h 835 W/m 12.9 C 24.2 C 7.8 km/h (2 Bft)
07.07.2010 13:00 25.3 C 46 % 1020.7 hPa 0.0 l/m 5.1 km/h (1 Bft) O-SO 1.00 h 861 W/m 12.9 C 25.3 C 9.4 km/h (2 Bft)
07.07.2010 14:00 25.8 C 44 % 1020.3 hPa 0.0 l/m 5.7 km/h (1 Bft) O-SO 1.00 h 841 W/m 12.5 C 25.8 C 10.3 km/h (2 Bft)
07.07.2010 15:00 26.1 C 42 % 1019.8 hPa 0.0 l/m 7.0 km/h (2 Bft) O-SO 1.00 h 774 W/m 12.2 C 26.1 C 11.9 km/h (2 Bft)
07.07.2010 16:00 26.5 C 40 % 1019.4 hPa 0.0 l/m 5.6 km/h (1 Bft) O-SO 1.00 h 671 W/m 11.6 C 26.5 C 10.2 km/h (2 Bft)
07.07.2010 17:00 26.7 C 38 % 1019.1 hPa 0.0 l/m 4.6 km/h (1 Bft) O-SO 1.00 h 534 W/m 11.2 C 26.7 C 8.2 km/h (2 Bft)
07.07.2010 18:00 26.3 C 38 % 1018.8 hPa 0.0 l/m 8.5 km/h (2 Bft) O-SO 1.00 h 372 W/m 10.8 C 26.3 C 12.9 km/h (3 Bft)
07.07.2010 19:00 25.8 C 39 % 1018.4 hPa 0.0 l/m 4.0 km/h (1 Bft) O-SO 1.00 h 214 W/m 10.8 C 25.8 C 7.7 km/h (2 Bft)
07.07.2010 20:00 24.7 C 44 % 1018.3 hPa 0.0 l/m 1.1 km/h (0 Bft) O-NO 0.65 h 74 W/m 11.6 C 24.7 C 3.4 km/h (1 Bft)
07.07.2010 21:00 22.3 C 54 % 1018.6 hPa 0.0 l/m 0.5 km/h (0 Bft) O-NO 0.00 h 11 W/m 12.6 C 22.3 C 1.8 km/h (1 Bft)
07.07.2010 22:00 20.2 C 63 % 1019.1 hPa 0.0 l/m 0.2 km/h (0 Bft) O-NO 0.00 h 0 W/m 12.9 C 20.2 C 0.6 km/h (0 Bft)
07.07.2010 23:00 18.3 C 71 % 1019.6 hPa 0.0 l/m 0.8 km/h (0 Bft) O-SO 0.00 h 0 W/m 12.9 C 18.3 C 1.7 km/h (1 Bft)
08.07.2010 00:00 17.4 C 74 % 1019.6 hPa 0.0 l/m 1.9 km/h (1 Bft) O-SO 0.00 h 0 W/m 12.8 C 17.4 C 3.2 km/h (1 Bft)
08.07.2010 01:00 16.6 C 79 % 1019.4 hPa 0.0 l/m 0.2 km/h (0 Bft) NO 0.00 h 0 W/m 12.9 C 16.6 C 0.7 km/h (0 Bft)
08.07.2010 02:00 15.8 C 82 % 1019.3 hPa 0.0 l/m 0.7 km/h (0 Bft) O 0.00 h 0 W/m 12.7 C 15.8 C 1.5 km/h (1 Bft)
08.07.2010 03:00 14.9 C 85 % 1019.1 hPa 0.0 l/m 0.9 km/h (0 Bft) O 0.00 h 0 W/m 12.3 C 14.9 C 2.0 km/h (1 Bft)
08.07.2010 04:00 14.3 C 87 % 1019.1 hPa 0.0 l/m 0.8 km/h (0 Bft) O 0.00 h 0 W/m 12.2 C 14.3 C 1.6 km/h (1 Bft)
08.07.2010 05:00 13.9 C 89 % 1019.0 hPa 0.0 l/m 0.1 km/h (0 Bft) O-SO 0.00 h 7 W/m 12.1 C 13.9 C 0.7 km/h (0 Bft)
08.07.2010 06:00 13.8 C 89 % 1019.1 hPa 0.0 l/m 0.2 km/h (0 Bft) O-SO 0.00 h 18 W/m 12.0 C 13.8 C 0.6 km/h (0 Bft)
08.07.2010 07:00 15.5 C 85 % 1019.3 hPa 0.0 l/m 0.0 km/h (0 Bft) N 0.95 h 183 W/m 13.0 C 15.5 C 0.2 km/h (0 Bft)
08.07.2010 08:00 18.5 C 78 % 1019.5 hPa 0.0 l/m 0.1 km/h (0 Bft) SO 1.00 h 343 W/m 14.5 C 18.5 C 0.9 km/h (0 Bft)
08.07.2010 09:00 21.1 C 67 % 1019.5 hPa 0.0 l/m 0.8 km/h (0 Bft) N-NW 1.00 h 504 W/m 14.8 C 21.1 C 2.4 km/h (1 Bft)
08.07.2010 10:00 23.4 C 58 % 1019.6 hPa 0.0 l/m 2.1 km/h (1 Bft) W-NW 1.00 h 646 W/m 14.5 C 23.4 C 4.1 km/h (1 Bft)
08.07.2010 11:00 25.3 C 52 % 1019.7 hPa 0.0 l/m 2.4 km/h (1 Bft) SO 1.00 h 760 W/m 14.8 C 25.3 C 4.4 km/h (1 Bft)
08.07.2010 12:00 26.8 C 45 % 1019.5 hPa 0.0 l/m 2.8 km/h (1 Bft) O-SO 1.00 h 834 W/m 13.8 C 26.8 C 5.2 km/h (1 Bft)
08.07.2010 13:00 28.5 C 41 % 1019.2 hPa 0.0 l/m 2.5 km/h (1 Bft) W-NW 1.00 h 864 W/m 14.1 C 28.5 C 4.6 km/h (1 Bft)
08.07.2010 14:00 29.3 C 41 % 1018.7 hPa 0.0 l/m 2.4 km/h (1 Bft) SO 1.00 h 844 W/m 14.5 C 29.3 C 4.8 km/h (1 Bft)
08.07.2010 15:00 30.1 C 38 % 1018.3 hPa 0.0 l/m 3.0 km/h (1 Bft) O-SO 1.00 h 778 W/m 14.3 C 30.1 C 5.8 km/h (2 Bft)
08.07.2010 16:00 30.9 C 36 % 1017.9 hPa 0.0 l/m 2.9 km/h (1 Bft) O-SO 1.00 h 664 W/m 14.0 C 30.9 C 5.4 km/h (1 Bft)
08.07.2010 17:00 31.8 C 36 % 1017.6 hPa 0.0 l/m 3.9 km/h (1 Bft) W 1.00 h 530 W/m 14.7 C 31.8 C 6.4 km/h (2 Bft)
08.07.2010 18:00 32.2 C 36 % 1017.5 hPa 0.0 l/m 4.3 km/h (1 Bft) W-SW 1.00 h 376 W/m 15.1 C 32.2 C 6.8 km/h (2 Bft)
08.07.2010 19:00 31.1 C 35 % 1017.1 hPa 0.0 l/m 6.2 km/h (2 Bft) W 1.00 h 215 W/m 13.5 C 31.1 C 9.4 km/h (2 Bft)
08.07.2010 20:00 28.4 C 50 % 1017.1 hPa 0.0 l/m 1.6 km/h (1 Bft) W-NW 0.63 h 72 W/m 16.8 C 28.4 C 3.3 km/h (1 Bft)
08.07.2010 21:00 25.0 C 61 % 1017.4 hPa 0.0 l/m 4.5 km/h (1 Bft) O-SO 0.03 h 10 W/m 17.0 C 25.0 C 5.9 km/h (2 Bft)
08.07.2010 22:00 22.1 C 71 % 1017.8 hPa 0.0 l/m 1.6 km/h (1 Bft) O-SO 0.00 h 0 W/m 16.7 C 22.1 C 2.4 km/h (1 Bft)
08.07.2010 23:00 20.6 C 75 % 1017.8 hPa 0.0 l/m 1.7 km/h (1 Bft) O-SO 0.00 h 0 W/m 16.0 C 20.6 C 2.9 km/h (1 Bft)
09.07.2010 00:00 19.6 C 77 % 1018.0 hPa 0.0 l/m 0.6 km/h (0 Bft) O-SO 0.00 h 0 W/m 15.5 C 19.6 C 1.3 km/h (1 Bft)
09.07.2010 01:00 18.6 C 82 % 1018.1 hPa 0.0 l/m 1.2 km/h (1 Bft) O-SO 0.00 h 0 W/m 15.3 C 18.6 C 2.1 km/h (1 Bft)
09.07.2010 02:00 17.9 C 84 % 1018.4 hPa 0.0 l/m 1.1 km/h (1 Bft) O-SO 0.00 h 0 W/m 15.1 C 17.9 C 2.1 km/h (1 Bft)
09.07.2010 03:00 17.2 C 87 % 1018.6 hPa 0.0 l/m 0.7 km/h (0 Bft) O-SO 0.00 h 0 W/m 15.0 C 17.2 C 1.6 km/h (1 Bft)
09.07.2010 04:00 16.5 C 89 % 1018.7 hPa 0.0 l/m 0.8 km/h (0 Bft) O-SO 0.00 h 0 W/m 14.7 C 16.5 C 1.5 km/h (1 Bft)
09.07.2010 05:00 15.8 C 92 % 1019.0 hPa 0.0 l/m 1.7 km/h (1 Bft) O-SO 0.00 h 8 W/m 14.5 C 15.8 C 2.8 km/h (1 Bft)
09.07.2010 06:00 15.7 C 92 % 1019.2 hPa 0.0 l/m 1.6 km/h (1 Bft) O-SO 0.00 h 24 W/m 14.5 C 15.7 C 2.6 km/h (1 Bft)
09.07.2010 07:00 17.4 C 91 % 1019.2 hPa 0.0 l/m 0.4 km/h (0 Bft) O-SO 0.73 h 163 W/m 15.9 C 17.4 C 1.4 km/h (1 Bft)
09.07.2010 08:00 19.7 C 85 % 1019.3 hPa 0.0 l/m 0.5 km/h (0 Bft) W-NW 1.00 h 323 W/m 17.2 C 19.7 C 2.0 km/h (1 Bft)
09.07.2010 09:00 22.1 C 79 % 1019.1 hPa 0.0 l/m 0.8 km/h (0 Bft) W-NW 1.00 h 481 W/m 18.3 C 22.1 C 2.3 km/h (1 Bft)
09.07.2010 10:00 24.9 C 71 % 1018.6 hPa 0.0 l/m 2.0 km/h (1 Bft) W-NW 1.00 h 612 W/m 19.3 C 24.9 C 4.2 km/h (1 Bft)
09.07.2010 11:00 27.5 C 62 % 1018.3 hPa 0.0 l/m 1.2 km/h (1 Bft) SO 1.00 h 741 W/m 19.4 C 27.5 C 3.0 km/h (1 Bft)
09.07.2010 12:00 29.7 C 56 % 1017.6 hPa 0.0 l/m 1.9 km/h (1 Bft) W 0.97 h 822 W/m 20.0 C 29.7 C 3.7 km/h (1 Bft)
09.07.2010 13:00 30.5 C 52 % 1017.6 hPa 0.0 l/m 1.8 km/h (1 Bft) W-SW 0.77 h 724 W/m 19.4 C 30.5 C 3.6 km/h (1 Bft)
09.07.2010 14:00 30.3 C 51 % 1017.6 hPa 0.0 l/m 1.4 km/h (1 Bft) NW 0.27 h 437 W/m 19.1 C 30.3 C 3.2 km/h (1 Bft)
09.07.2010 15:00 32.6 C 43 % 1017.5 hPa 0.0 l/m 3.0 km/h (1 Bft) W 1.00 h 737 W/m 18.4 C 32.6 C 5.4 km/h (1 Bft)
09.07.2010 16:00 33.6 C 34 % 1016.9 hPa 0.0 l/m 3.4 km/h (1 Bft) W 0.98 h 663 W/m 15.5 C 33.6 C 6.1 km/h (2 Bft)
09.07.2010 17:00 32.8 C 36 % 1016.9 hPa 0.0 l/m 5.1 km/h (1 Bft) O-SO 0.98 h 464 W/m 15.5 C 32.8 C 7.2 km/h (2 Bft)
09.07.2010 18:00 31.9 C 40 % 1016.7 hPa 0.0 l/m 5.5 km/h (1 Bft) O-SO 0.67 h 278 W/m 16.5 C 31.9 C 7.3 km/h (2 Bft)
09.07.2010 19:00 30.1 C 51 % 1016.7 hPa 0.0 l/m 4.9 km/h (1 Bft) O-SO 0.00 h 104 W/m 18.9 C 30.1 C 6.4 km/h (2 Bft)
09.07.2010 20:00 28.2 C 60 % 1016.5 hPa 0.0 l/m 1.5 km/h (1 Bft) O-SO 0.00 h 37 W/m 19.6 C 28.2 C 2.8 km/h (1 Bft)
09.07.2010 21:00 26.4 C 66 % 1016.7 hPa 0.0 l/m 1.5 km/h (1 Bft) O-SO 0.07 h 11 W/m 19.5 C 26.4 C 2.8 km/h (1 Bft)
09.07.2010 22:00 24.8 C 70 % 1017.1 hPa 0.0 l/m 1.3 km/h (1 Bft) O-SO 0.00 h 0 W/m 19.0 C 24.8 C 2.5 km/h (1 Bft)
09.07.2010 23:00 23.2 C 74 % 1017.3 hPa 0.0 l/m 2.2 km/h (1 Bft) O-SO 0.00 h 0 W/m 18.4 C 23.2 C 3.4 km/h (1 Bft)
10.07.2010 00:00 22.0 C 79 % 1017.7 hPa 0.0 l/m 2.2 km/h (1 Bft) O-SO 0.00 h 0 W/m 18.2 C 22.0 C 3.6 km/h (1 Bft)
10.07.2010 01:00 21.3 C 81 % 1017.9 hPa 0.0 l/m 0.9 km/h (0 Bft) O-SO 0.00 h 0 W/m 17.9 C 21.3 C 2.0 km/h (1 Bft)
10.07.2010 02:00 20.3 C 85 % 1018.3 hPa 0.0 l/m 1.1 km/h (0 Bft) O-SO 0.00 h 0 W/m 17.7 C 20.3 C 1.8 km/h (1 Bft)
10.07.2010 03:00 19.4 C 88 % 1018.3 hPa 0.0 l/m 1.2 km/h (1 Bft) O-SO 0.00 h 0 W/m 17.3 C 19.4 C 2.3 km/h (1 Bft)
10.07.2010 04:00 18.8 C 89 % 1018.4 hPa 0.0 l/m 0.4 km/h (0 Bft) O-SO 0.00 h 0 W/m 16.9 C 18.8 C 1.0 km/h (0 Bft)
10.07.2010 05:00 18.3 C 91 % 1018.6 hPa 0.0 l/m 2.7 km/h (1 Bft) O-SO 0.00 h 8 W/m 16.8 C 18.3 C 4.0 km/h (1 Bft)
10.07.2010 06:00 17.8 C 93 % 1018.7 hPa 0.0 l/m 0.1 km/h (0 Bft) O-SO 0.00 h 33 W/m 16.6 C 17.8 C 0.4 km/h (0 Bft)
10.07.2010 07:00 19.2 C 90 % 1018.6 hPa 0.0 l/m 0.0 km/h (0 Bft) N 0.48 h 147 W/m 17.6 C 19.2 C 0.1 km/h (0 Bft)
10.07.2010 08:00 21.8 C 84 % 1018.5 hPa 0.0 l/m 0.2 km/h (0 Bft) O-SO 1.00 h 297 W/m 18.9 C 21.8 C 0.9 km/h (0 Bft)
10.07.2010 09:00 24.3 C 77 % 1018.4 hPa 0.0 l/m 0.6 km/h (0 Bft) NO 1.00 h 453 W/m 19.9 C 24.3 C 2.1 km/h (1 Bft)
10.07.2010 10:00 26.4 C 69 % 1017.9 hPa 0.0 l/m 1.9 km/h (1 Bft) W 1.00 h 602 W/m 20.1 C 26.4 C 3.7 km/h (1 Bft)
10.07.2010 11:00 28.7 C 64 % 1017.4 hPa 0.0 l/m 2.6 km/h (1 Bft) W-NW 1.00 h 747 W/m 21.2 C 28.7 C 4.4 km/h (1 Bft)
10.07.2010 12:00 30.5 C 58 % 1017.1 hPa 0.0 l/m 2.9 km/h (1 Bft) W-NW 1.00 h 792 W/m 21.1 C 30.5 C 5.2 km/h (1 Bft)
10.07.2010 13:00 32.1 C 51 % 1016.2 hPa 0.0 l/m 2.3 km/h (1 Bft) W-NW 1.00 h 833 W/m 20.7 C 32.1 C 4.5 km/h (1 Bft)
10.07.2010 14:00 32.9 C 47 % 1015.7 hPa 0.0 l/m 3.3 km/h (1 Bft) O-SO 1.00 h 765 W/m 19.9 C 32.9 C 6.3 km/h (2 Bft)
10.07.2010 15:00 33.4 C 40 % 1015.0 hPa 0.0 l/m 7.1 km/h (2 Bft) O-SO 1.00 h 735 W/m 18.0 C 33.4 C 10.9 km/h (2 Bft)
10.07.2010 16:00 33.9 C 39 % 1014.2 hPa 0.0 l/m 3.9 km/h (1 Bft) O-SO 1.00 h 623 W/m 18.1 C 33.9 C 6.4 km/h (2 Bft)
10.07.2010 17:00 34.2 C 42 % 1014.0 hPa 0.0 l/m 2.5 km/h (1 Bft) SO 1.00 h 493 W/m 19.2 C 34.2 C 4.9 km/h (1 Bft)
10.07.2010 18:00 33.6 C 44 % 1013.7 hPa 0.0 l/m 0.9 km/h (0 Bft) SO 0.63 h 270 W/m 19.6 C 33.6 C 2.5 km/h (1 Bft)
10.07.2010 19:00 31.1 C 51 % 1014.1 hPa 0.0 l/m 5.7 km/h (1 Bft) W 0.00 h 84 W/m 19.6 C 31.1 C 9.7 km/h (2 Bft)
10.07.2010 20:00 29.9 C 52 % 1014.9 hPa 0.0 l/m 7.8 km/h (2 Bft) W 0.00 h 21 W/m 18.9 C 29.9 C 13.8 km/h (3 Bft)
10.07.2010 21:00 24.6 C 68 % 1017.6 hPa 0.0 l/m 12.4 km/h (3 Bft) S-SO 0.00 h 0 W/m 18.3 C 24.6 C 20.9 km/h (4 Bft)
10.07.2010 22:00 21.3 C 89 % 1017.7 hPa 0.8 l/m 2.1 km/h (1 Bft) S 0.00 h 0 W/m 19.4 C 21.3 C 4.1 km/h (1 Bft)
10.07.2010 23:00 20.7 C 93 % 1017.6 hPa 0.2 l/m 0.4 km/h (0 Bft) S-SW 0.00 h 0 W/m 19.5 C 20.7 C 1.8 km/h (1 Bft)
11.07.2010 00:00 20.4 C 94 % 1017.3 hPa 0.0 l/m 3.1 km/h (1 Bft) O-SO 0.00 h 0 W/m 19.4 C 20.4 C 4.1 km/h (1 Bft)
11.07.2010 01:00 20.1 C 95 % 1016.4 hPa 0.0 l/m 0.8 km/h (0 Bft) O-SO 0.00 h 0 W/m 19.3 C 20.1 C 1.9 km/h (1 Bft)
11.07.2010 02:00 19.7 C 95 % 1015.9 hPa 0.0 l/m 2.6 km/h (1 Bft) SO 0.00 h 0 W/m 18.9 C 19.7 C 4.3 km/h (1 Bft)
11.07.2010 03:00 19.6 C 95 % 1015.7 hPa 0.0 l/m 1.8 km/h (1 Bft) O-SO 0.00 h 0 W/m 18.8 C 19.6 C 3.5 km/h (1 Bft)
11.07.2010 04:00 19.4 C 95 % 1016.0 hPa 0.0 l/m 2.1 km/h (1 Bft) O-SO 0.00 h 0 W/m 18.6 C 19.4 C 3.5 km/h (1 Bft)
11.07.2010 05:00 19.3 C 95 % 1016.4 hPa 0.0 l/m 0.1 km/h (0 Bft) O-SO 0.00 h 6 W/m 18.5 C 19.3 C 0.7 km/h (0 Bft)
11.07.2010 06:00 19.1 C 95 % 1017.0 hPa 0.0 l/m 0.4 km/h (0 Bft) O-SO 0.00 h 19 W/m 18.3 C 19.1 C 1.1 km/h (1 Bft)
11.07.2010 07:00 19.9 C 95 % 1017.2 hPa 0.0 l/m 0.0 km/h (0 Bft) N 0.65 h 145 W/m 19.1 C 19.9 C 0.3 km/h (0 Bft)
11.07.2010 08:00 21.9 C 87 % 1017.5 hPa 0.0 l/m 0.7 km/h (0 Bft) O-SO 0.85 h 317 W/m 19.6 C 21.9 C 2.0 km/h (1 Bft)
11.07.2010 09:00 23.7 C 79 % 1017.7 hPa 0.0 l/m 1.3 km/h (1 Bft) S-SO 0.93 h 468 W/m 19.8 C 23.7 C 3.8 km/h (1 Bft)
11.07.2010 10:00 24.6 C 77 % 1017.9 hPa 0.0 l/m 1.6 km/h (1 Bft) S-SO 0.25 h 342 W/m 20.2 C 24.6 C 4.2 km/h (1 Bft)
11.07.2010 11:00 25.3 C 75 % 1018.0 hPa 0.0 l/m 1.3 km/h (1 Bft) W-NW 0.40 h 501 W/m 20.6 C 25.3 C 3.2 km/h (1 Bft)
11.07.2010 12:00 28.3 C 66 % 1017.4 hPa 0.0 l/m 3.1 km/h (1 Bft) N-NW 1.00 h 833 W/m 21.4 C 28.3 C 5.3 km/h (1 Bft)
11.07.2010 13:00 29.5 C 62 % 1016.7 hPa 0.0 l/m 4.5 km/h (1 Bft) N-NW 0.95 h 726 W/m 21.4 C 29.5 C 7.5 km/h (2 Bft)
11.07.2010 14:00 30.0 C 57 % 1016.1 hPa 0.0 l/m 3.9 km/h (1 Bft) W 0.72 h 667 W/m 20.4 C 30.0 C 6.6 km/h (2 Bft)
11.07.2010 15:00 31.8 C 49 % 1015.4 hPa 0.0 l/m 4.1 km/h (1 Bft) W 1.00 h 747 W/m 19.8 C 31.8 C 6.8 km/h (2 Bft)
11.07.2010 16:00 32.6 C 46 % 1014.7 hPa 0.0 l/m 5.0 km/h (1 Bft) W-SW 1.00 h 623 W/m 19.4 C 32.6 C 8.5 km/h (2 Bft)
11.07.2010 17:00 32.0 C 47 % 1014.5 hPa 0.0 l/m 4.6 km/h (1 Bft) W-SW 0.77 h 411 W/m 19.0 C 32.0 C 7.4 km/h (2 Bft)
11.07.2010 18:00 32.1 C 46 % 1014.1 hPa 0.0 l/m 5.4 km/h (1 Bft) W 1.00 h 354 W/m 19.1 C 32.1 C 8.9 km/h (2 Bft)
11.07.2010 19:00 31.1 C 51 % 1014.3 hPa 0.0 l/m 2.1 km/h (1 Bft) W-SW 1.00 h 239 W/m 19.7 C 31.1 C 4.4 km/h (1 Bft)
11.07.2010 20:00 29.8 C 55 % 1014.5 hPa 0.0 l/m 1.1 km/h (1 Bft) S-SO 1.00 h 102 W/m 19.8 C 29.8 C 3.3 km/h (1 Bft)
11.07.2010 21:00 27.0 C 62 % 1015.1 hPa 0.0 l/m 2.4 km/h (1 Bft) S-SO 0.20 h 20 W/m 19.1 C 27.0 C 4.8 km/h (1 Bft)
11.07.2010 22:00 25.1 C 67 % 1015.8 hPa 0.0 l/m 1.0 km/h (0 Bft) S-SO 0.00 h 0 W/m 18.5 C 25.1 C 2.5 km/h (1 Bft)
11.07.2010 23:00 23.8 C 72 % 1015.9 hPa 0.0 l/m 3.8 km/h (1 Bft) O-SO 0.00 h 0 W/m 18.3 C 23.8 C 5.6 km/h (1 Bft)
Min-Datum _ 07.07.10 08.07.10 10.07.10 - 05.07.10 - - - 07.07.10 07.07.10 05.07.10
_ Min-Zeit 06:06 19:02 18:30 - 00:00 - - - 17:01 06:06 00:00
Minimum _ 13.4 C 28 % 1013.4 hPa - 0.0 km/h (0 Bft) - - - 8.6 C 13.4 C 0.0 km/h (0 Bft)
Max-Datum _ 10.07.10 05.07.10 06.07.10 06.07.10 05.07.10 - 05.07.10 09.07.10 11.07.10 10.07.10 10.07.10
_ Max-Zeit 17:12 05:45 23:30 05:24 17:05 - 07:57 13:34 13:12 17:12 21:03
Maximum _ 34.5 C 99 % 1021.9 hPa 1.6 l/m 21.4 km/h
W (4 Bft)
- 0.02 h 1114 W/m 23.1 C 34.5 C 41.7 km/h
S-SO (6 Bft)
Durchschnitt _ 23.3 C 68 % 1018.3 hPa #2.6 l/m 2.7 km/h (1 Bft) O-SO #79:53 h 415 W/m 16.3 C 23.3 C 4.7 km/h (1 Bft)
© Kaiko 2010